Time;durP1;ratioP1;P1;durP2;ratioP2;P2;SDS_P1;SDS_P2;PMS_P1;PMS_P2;Temp;Humidity;BMP_temperature;BMP_pressure;BME280_temperature;BME280_humidity;BME280_pressure;Samples;Min_cycle;Max_cycle;Signal;HPM_P1;HPM_P2
2021/04/30 00:01:05;;;;;;;9.53;8.60;;;6.30;99.90;;;;;;4989711;28;20443;-80
2021/04/30 00:03:31;;;;;;;9.87;8.97;;;6.30;99.90;;;;;;4988193;28;20431;-80
2021/04/30 00:05:56;;;;;;;9.53;8.60;;;6.30;99.90;;;;;;4992499;28;20595;-79
2021/04/30 00:08:22;;;;;;;9.33;8.50;;;6.30;99.90;;;;;;4994036;28;20199;-80
2021/04/30 00:10:47;;;;;;;9.23;8.40;;;6.20;99.90;;;;;;4984777;28;20216;-78
2021/04/30 00:13:13;;;;;;;9.13;8.23;;;6.20;99.90;;;;;;4987352;28;20611;-78
2021/04/30 00:15:39;;;;;;;8.80;8.00;;;6.30;99.90;;;;;;4990530;28;20626;-80
2021/04/30 00:18:05;;;;;;;8.77;7.97;;;6.20;99.90;;;;;;4990836;28;20208;-78
2021/04/30 00:20:35;;;;;;;10.20;9.30;;;6.10;99.90;;;;;;4988385;28;20211;-79
2021/04/30 00:23:02;;;;;;;9.87;8.97;;;6.10;99.90;;;;;;4992987;28;20427;-79
2021/04/30 00:25:28;;;;;;;9.90;8.10;;;6.10;99.90;;;;;;4989187;28;20435;-79
2021/04/30 00:27:55;;;;;;;8.97;8.03;;;6.00;99.90;;;;;;4994370;28;20513;-78
2021/04/30 00:30:21;;;;;;;10.10;9.10;;;5.90;99.90;;;;;;4992667;28;20470;-77
2021/04/30 00:32:47;;;;;;;9.53;8.60;;;6.00;99.90;;;;;;4988776;28;20463;-78
2021/04/30 00:35:13;;;;;;;9.13;8.33;;;6.10;99.90;;;;;;4985796;28;20510;-78
2021/04/30 00:37:39;;;;;;;9.27;8.47;;;6.10;99.90;;;;;;4987993;28;20200;-77
2021/04/30 00:40:09;;;;;;;9.73;8.80;;;6.10;99.90;;;;;;4988771;28;20186;-78
2021/04/30 00:42:35;;;;;;;10.60;9.50;;;6.00;99.90;;;;;;4988531;28;20753;-78
2021/04/30 00:45:01;;;;;;;8.50;7.70;;;5.90;99.90;;;;;;4991309;28;20435;-77
2021/04/30 00:47:37;;;;;;;10.07;9.07;;;5.80;99.90;;;;;;4995562;28;20978;-77
2021/04/30 00:50:08;;;;;;;9.33;8.43;;;5.80;99.90;;;;;;4996811;28;20959;-79
2021/04/30 00:52:36;;;;;;;9.20;8.50;;;5.70;99.90;;;;;;4991480;28;20427;-79
2021/04/30 00:55:04;;;;;;;9.43;8.53;;;5.70;99.90;;;;;;4990604;28;20435;-79
2021/04/30 00:57:29;;;;;;;9.93;8.93;;;5.70;99.90;;;;;;4992325;28;20451;-78
2021/04/30 00:59:55;;;;;;;9.17;8.37;;;5.60;99.90;;;;;;4990759;28;20438;-78
2021/04/30 01:02:21;;;;;;;9.10;8.33;;;5.70;99.90;;;;;;4997796;28;20723;-78
2021/04/30 01:04:47;;;;;;;9.33;8.43;;;5.70;99.90;;;;;;4990000;28;20451;-79
2021/04/30 01:07:12;;;;;;;12.00;10.17;;;5.70;99.90;;;;;;4986151;28;20217;-76
2021/04/30 01:09:38;;;;;;;9.00;8.20;;;5.70;99.90;;;;;;4991570;28;20600;-78
2021/04/30 01:12:04;;;;;;;9.77;8.87;;;5.70;99.90;;;;;;4999990;28;20282;-79
2021/04/30 01:14:30;;;;;;;8.90;8.07;;;5.60;99.90;;;;;;4988930;28;20605;-78
2021/04/30 01:16:56;;;;;;;10.47;9.40;;;5.60;99.90;;;;;;4993621;28;20461;-79
2021/04/30 01:19:25;;;;;;;11.93;9.13;;;5.60;99.90;;;;;;4989547;28;20432;-79
2021/04/30 01:22:00;;;;;;;10.90;9.90;;;5.60;99.90;;;;;;4994890;28;20180;-79
2021/04/30 01:24:26;;;;;;;12.47;10.57;;;5.60;99.90;;;;;;4991886;28;20484;-79
2021/04/30 01:26:53;;;;;;;11.63;10.50;;;5.60;99.90;;;;;;4990498;28;20455;-80
2021/04/30 01:29:20;;;;;;;11.50;10.30;;;5.50;99.90;;;;;;4989627;28;20455;-79
2021/04/30 01:31:45;;;;;;;8.90;8.00;;;5.50;99.90;;;;;;4993551;28;20523;-77
2021/04/30 01:34:11;;;;;;;13.40;9.93;;;5.40;99.90;;;;;;4988603;28;20527;-78
2021/04/30 01:36:37;;;;;;;10.80;9.70;;;5.30;99.90;;;;;;4985403;28;20795;-79
2021/04/30 01:39:07;;;;;;;10.23;9.23;;;5.30;99.90;;;;;;4981155;28;20439;-79
2021/04/30 01:41:35;;;;;;;10.60;9.60;;;5.30;99.90;;;;;;4991919;28;20467;-80
2021/04/30 01:44:01;;;;;;;10.57;9.53;;;5.30;99.90;;;;;;4990223;28;20437;-79
2021/04/30 01:46:27;;;;;;;12.77;10.30;;;5.30;99.90;;;;;;4990809;28;20830;-81
2021/04/30 01:48:52;;;;;;;11.20;10.10;;;5.30;99.90;;;;;;4988561;28;20450;-79
2021/04/30 01:51:18;;;;;;;12.93;9.80;;;5.30;99.90;;;;;;4987974;28;20239;-78
2021/04/30 01:53:44;;;;;;;10.67;9.57;;;5.30;99.90;;;;;;4991035;28;20620;-80
2021/04/30 01:56:12;;;;;;;12.00;10.70;;;5.30;99.90;;;;;;4991185;28;20203;-78
2021/04/30 01:58:38;;;;;;;13.17;10.37;;;5.30;99.90;;;;;;4993155;28;20807;-78
2021/04/30 02:01:07;;;;;;;11.63;10.53;;;5.20;99.90;;;;;;4990795;28;20431;-79
2021/04/30 02:03:33;;;;;;;10.63;9.63;;;5.20;99.90;;;;;;4987985;28;20443;-80
2021/04/30 02:05:59;;;;;;;12.03;10.80;;;5.20;99.90;;;;;;4990274;28;20454;-79
2021/04/30 02:08:26;;;;;;;11.27;10.17;;;5.20;99.90;;;;;;4985811;28;20219;-79
2021/04/30 02:10:52;;;;;;;11.73;10.10;;;5.20;99.90;;;;;;4987345;28;20216;-78
2021/04/30 02:13:19;;;;;;;13.83;11.57;;;5.20;99.90;;;;;;4988078;28;20432;-78
2021/04/30 02:15:47;;;;;;;11.40;10.20;;;5.20;99.90;;;;;;4987793;28;20971;-77
2021/04/30 02:18:14;;;;;;;11.67;10.57;;;5.20;99.90;;;;;;4991157;28;20513;-78
2021/04/30 02:20:39;;;;;;;12.40;11.17;;;5.10;99.90;;;;;;4996949;28;20893;-79
2021/04/30 02:23:05;;;;;;;12.63;11.33;;;5.20;99.90;;;;;;4996118;28;20471;-79
2021/04/30 02:25:32;;;;;;;11.83;10.70;;;5.20;99.90;;;;;;4988401;28;20523;-79
2021/04/30 02:27:59;;;;;;;11.73;10.53;;;5.30;99.90;;;;;;4987460;28;20474;-78
2021/04/30 02:30:27;;;;;;;13.17;11.43;;;5.30;99.90;;;;;;4990382;28;20888;-78
2021/04/30 02:32:53;;;;;;;12.50;11.27;;;5.20;99.90;;;;;;4995946;28;20426;-78
2021/04/30 02:35:21;;;;;;;12.43;11.20;;;5.20;99.90;;;;;;4987341;28;20505;-77
2021/04/30 02:37:48;;;;;;;14.43;12.80;;;5.10;99.90;;;;;;4990257;28;20460;-78
2021/04/30 02:40:15;;;;;;;13.87;11.67;;;5.00;99.90;;;;;;4986862;28;22095;-78
2021/04/30 02:42:42;;;;;;;13.37;12.00;;;5.00;99.90;;;;;;4994670;28;20898;-78
2021/04/30 02:45:10;;;;;;;12.33;11.13;;;5.00;99.90;;;;;;4989068;28;20451;-76
2021/04/30 02:47:36;;;;;;;12.73;11.47;;;5.00;99.90;;;;;;4990958;28;20459;-79
2021/04/30 02:50:04;;;;;;;13.10;11.80;;;4.90;99.90;;;;;;4990076;28;20894;-78
2021/04/30 02:52:30;;;;;;;13.53;12.17;;;5.00;99.90;;;;;;4996359;28;20524;-78
2021/04/30 02:54:56;;;;;;;13.33;11.87;;;4.90;99.90;;;;;;4989989;28;20863;-76
2021/04/30 02:57:22;;;;;;;14.30;11.27;;;4.90;99.90;;;;;;4993613;28;20294;-79
2021/04/30 02:59:48;;;;;;;13.67;12.20;;;4.90;99.90;;;;;;4993243;28;20193;-78
2021/04/30 03:02:14;;;;;;;12.63;11.30;;;5.00;99.90;;;;;;4990368;28;20462;-78
2021/04/30 03:04:40;;;;;;;13.33;11.93;;;4.90;99.90;;;;;;4993496;28;20442;-78
2021/04/30 03:07:07;;;;;;;14.27;11.83;;;4.90;99.90;;;;;;4984681;28;20452;-79
2021/04/30 03:09:32;;;;;;;14.80;12.10;;;4.80;99.90;;;;;;4993056;28;20823;-78
2021/04/30 03:11:58;;;;;;;13.87;12.43;;;4.80;99.90;;;;;;4987728;28;20432;-80
2021/04/30 03:14:24;;;;;;;17.10;12.23;;;4.70;99.90;;;;;;4991137;28;20192;-80
2021/04/30 03:16:49;;;;;;;13.57;12.17;;;4.70;99.90;;;;;;4988070;28;20196;-80
2021/04/30 03:19:15;;;;;;;17.97;11.90;;;4.70;99.90;;;;;;4990500;28;20625;-78
2021/04/30 03:21:41;;;;;;;16.40;11.87;;;4.60;99.90;;;;;;4987217;28;20218;-79
2021/04/30 03:24:07;;;;;;;14.00;12.50;;;4.60;99.90;;;;;;4988096;28;20207;-78
2021/04/30 03:26:33;;;;;;;14.77;12.83;;;4.60;99.90;;;;;;4992152;28;20207;-79
2021/04/30 03:29:00;;;;;;;13.33;11.93;;;4.60;99.90;;;;;;4991187;28;20472;-80
2021/04/30 03:31:26;;;;;;;13.83;12.50;;;4.50;99.90;;;;;;4990662;28;20574;-77
2021/04/30 03:33:51;;;;;;;13.70;12.30;;;4.50;99.90;;;;;;4997753;28;20470;-78
2021/04/30 03:36:19;;;;;;;12.70;11.50;;;4.50;99.90;;;;;;4989365;28;20443;-78
2021/04/30 03:38:45;;;;;;;16.23;13.00;;;4.40;99.90;;;;;;4998086;28;20185;-79
2021/04/30 03:41:11;;;;;;;14.67;13.17;;;4.40;99.90;;;;;;4993295;28;20779;-80
2021/04/30 03:43:37;;;;;;;15.53;14.03;;;4.40;99.90;;;;;;4990675;28;20444;-81
2021/04/30 03:46:02;;;;;;;15.90;13.20;;;4.40;99.90;;;;;;4987787;28;20180;-78
2021/04/30 03:48:29;;;;;;;14.50;13.00;;;4.40;99.90;;;;;;4988502;28;20204;-79
2021/04/30 03:50:54;;;;;;;14.97;12.53;;;4.40;99.90;;;;;;4987715;28;20580;-79
2021/04/30 03:53:21;;;;;;;14.50;12.90;;;4.40;99.90;;;;;;4991460;28;20428;-82
2021/04/30 03:55:47;;;;;;;16.37;13.70;;;4.40;99.90;;;;;;4989920;28;20186;-80
2021/04/30 03:58:12;;;;;;;14.87;13.33;;;4.30;99.90;;;;;;4989699;28;20455;-80
2021/04/30 04:00:38;;;;;;;14.80;13.10;;;4.30;99.90;;;;;;4992907;28;20430;-80
2021/04/30 04:03:04;;;;;;;16.33;14.07;;;4.30;99.90;;;;;;4990049;28;20276;-80
2021/04/30 04:05:29;;;;;;;15.90;14.30;;;4.30;99.90;;;;;;4995101;28;20192;-80
2021/04/30 04:07:55;;;;;;;16.03;12.73;;;4.20;99.90;;;;;;4987638;28;20736;-77
2021/04/30 04:10:21;;;;;;;18.60;14.40;;;4.20;99.90;;;;;;4989575;28;20266;-79
2021/04/30 04:12:46;;;;;;;16.70;14.67;;;4.20;99.90;;;;;;4987911;28;20191;-80
2021/04/30 04:15:12;;;;;;;15.60;13.43;;;4.20;99.90;;;;;;4991596;28;20217;-81
2021/04/30 04:17:38;;;;;;;14.97;13.37;;;4.10;99.90;;;;;;4997088;28;20211;-80
2021/04/30 04:20:04;;;;;;;13.87;11.90;;;4.10;99.90;;;;;;5002024;28;20225;-80
2021/04/30 04:22:30;;;;;;;17.03;15.37;;;4.10;99.90;;;;;;4994072;28;20274;-77
2021/04/30 04:24:56;;;;;;;16.40;14.50;;;4.00;99.90;;;;;;4982656;28;20617;-76
2021/04/30 04:27:22;;;;;;;17.30;14.50;;;4.10;99.90;;;;;;4990434;28;20615;-78
2021/04/30 04:29:48;;;;;;;15.07;13.30;;;4.20;99.90;;;;;;4991173;28;20715;-77
2021/04/30 04:32:13;;;;;;;14.13;12.63;;;4.10;99.90;;;;;;4992787;28;20483;-80
2021/04/30 04:34:39;;;;;;;16.70;13.47;;;4.20;99.90;;;;;;4991779;28;20657;-80
2021/04/30 04:37:05;;;;;;;14.60;13.10;;;4.20;99.90;;;;;;4994597;28;20207;-80
2021/04/30 04:39:32;;;;;;;14.70;13.10;;;4.10;99.90;;;;;;4993816;28;20662;-75
2021/04/30 04:42:05;;;;;;;14.30;12.80;;;4.10;99.90;;;;;;4993524;28;20439;-77
2021/04/30 04:44:31;;;;;;;14.57;13.03;;;4.10;99.90;;;;;;4989749;28;20435;-77
2021/04/30 04:46:57;;;;;;;15.80;14.07;;;4.10;99.90;;;;;;4989239;28;21049;-76
2021/04/30 04:49:23;;;;;;;18.30;14.20;;;4.10;99.90;;;;;;4994164;28;20449;-77
2021/04/30 04:51:48;;;;;;;16.57;14.60;;;4.10;99.90;;;;;;4994337;28;20483;-76
2021/04/30 04:54:14;;;;;;;16.10;13.50;;;4.20;99.90;;;;;;4991580;28;20649;-75
2021/04/30 04:56:40;;;;;;;16.47;14.53;;;4.20;99.90;;;;;;4989903;28;20361;-77
2021/04/30 04:59:05;;;;;;;17.87;14.77;;;4.30;99.90;;;;;;4989342;28;20185;-77
2021/04/30 05:01:31;;;;;;;19.70;14.70;;;4.30;99.90;;;;;;4994651;28;20187;-76
2021/04/30 05:03:57;;;;;;;15.33;13.80;;;4.40;99.90;;;;;;4997779;28;20203;-77
2021/04/30 05:06:22;;;;;;;16.27;13.87;;;4.40;99.90;;;;;;4991254;28;20184;-74
2021/04/30 05:08:48;;;;;;;19.27;15.30;;;4.50;99.90;;;;;;4988638;28;20439;-74
2021/04/30 05:11:13;;;;;;;18.33;16.00;;;4.50;99.90;;;;;;4990136;28;20212;-75
2021/04/30 05:13:39;;;;;;;14.63;13.03;;;4.60;99.90;;;;;;4992638;28;20181;-77
2021/04/30 05:16:06;;;;;;;15.40;13.70;;;4.70;99.90;;;;;;4992222;28;20695;-77
2021/04/30 05:18:32;;;;;;;17.70;15.03;;;4.80;99.90;;;;;;4996429;28;20176;-77
2021/04/30 05:20:58;;;;;;;16.77;14.30;;;5.00;99.90;;;;;;4989233;28;21006;-77
2021/04/30 05:23:25;;;;;;;16.63;14.83;;;5.10;99.90;;;;;;4989467;28;20240;-77
2021/04/30 05:25:53;;;;;;;15.53;13.80;;;5.20;99.90;;;;;;4989601;28;20424;-77
2021/04/30 05:28:19;;;;;;;19.27;14.70;;;5.40;99.90;;;;;;4989293;28;20467;-78
2021/04/30 05:30:45;;;;;;;16.97;15.17;;;5.50;99.90;;;;;;4987874;28;20530;-78
2021/04/30 05:33:11;;;;;;;20.23;15.60;;;5.50;99.90;;;;;;4992930;28;20189;-78
2021/04/30 05:35:36;;;;;;;16.70;14.47;;;5.60;99.90;;;;;;4989171;28;20436;-77
2021/04/30 05:38:04;;;;;;;16.37;14.43;;;5.70;99.90;;;;;;4986033;28;20723;-76
2021/04/30 05:40:30;;;;;;;18.57;15.83;;;5.90;99.90;;;;;;4994225;28;20192;-78
2021/04/30 05:42:55;;;;;;;18.03;16.17;;;5.90;99.90;;;;;;4993422;28;20442;-77
2021/04/30 05:45:21;;;;;;;18.87;15.10;;;6.00;99.90;;;;;;4988619;28;20185;-77
2021/04/30 05:47:46;;;;;;;18.27;14.00;;;6.10;99.90;;;;;;4993617;28;20255;-77
2021/04/30 05:50:12;;;;;;;17.57;14.83;;;6.10;99.90;;;;;;4994760;28;20346;-77
2021/04/30 05:52:38;;;;;;;17.40;15.23;;;6.30;99.90;;;;;;4991216;28;20197;-77
2021/04/30 05:55:05;;;;;;;19.50;15.87;;;6.40;99.90;;;;;;4995959;28;20534;-76
2021/04/30 05:57:31;;;;;;;18.63;15.40;;;6.40;99.90;;;;;;4992504;28;20212;-77
2021/04/30 05:59:56;;;;;;;18.13;16.17;;;6.40;99.90;;;;;;4994493;28;20437;-78
2021/04/30 06:02:22;;;;;;;20.13;16.10;;;6.40;99.90;;;;;;4992043;28;20180;-79
2021/04/30 06:04:48;;;;;;;18.67;15.00;;;6.50;99.90;;;;;;5000679;28;20203;-78
2021/04/30 06:07:13;;;;;;;18.03;15.53;;;6.60;99.90;;;;;;4990095;28;20212;-78
2021/04/30 06:09:39;;;;;;;17.67;15.87;;;6.80;99.90;;;;;;4995363;28;20262;-78
2021/04/30 06:12:05;;;;;;;17.23;14.87;;;6.90;99.90;;;;;;4989254;28;20188;-77
2021/04/30 06:14:33;;;;;;;17.50;15.70;;;6.90;99.90;;;;;;4989131;28;20214;-78
2021/04/30 06:16:59;;;;;;;17.83;14.27;;;6.90;99.90;;;;;;4991702;28;20459;-78
2021/04/30 06:19:25;;;;;;;16.67;14.97;;;7.00;99.90;;;;;;4989138;28;20947;-78
2021/04/30 06:21:52;;;;;;;16.50;14.80;;;7.00;99.90;;;;;;4988967;28;20432;-78
2021/04/30 06:24:17;;;;;;;18.20;15.70;;;7.10;99.90;;;;;;4988874;28;20448;-78
2021/04/30 06:26:43;;;;;;;19.83;17.53;;;7.20;99.90;;;;;;4989049;28;20451;-78
2021/04/30 06:29:09;;;;;;;18.27;15.30;;;7.30;99.90;;;;;;4988316;28;20448;-78
2021/04/30 06:31:39;;;;;;;17.70;15.90;;;7.50;99.90;;;;;;4988583;28;20577;-78
2021/04/30 06:34:05;;;;;;;17.33;15.50;;;7.50;99.90;;;;;;4981420;28;20466;-78
2021/04/30 06:36:31;;;;;;;20.13;14.73;;;7.50;99.90;;;;;;4988369;28;20451;-77
2021/04/30 06:38:57;;;;;;;17.83;15.23;;;7.40;99.90;;;;;;4989056;28;20650;-79
2021/04/30 06:41:22;;;;;;;16.73;15.07;;;7.60;99.90;;;;;;4991931;28;20530;-80
2021/04/30 06:43:48;;;;;;;17.00;15.27;;;7.70;99.90;;;;;;4990982;28;20192;-79
2021/04/30 06:46:14;;;;;;;17.57;15.67;;;7.70;99.90;;;;;;4988069;28;20618;-78
2021/04/30 06:48:39;;;;;;;17.70;15.80;;;7.70;99.90;;;;;;4988683;28;20192;-78
2021/04/30 06:51:05;;;;;;;17.30;15.50;;;7.80;99.90;;;;;;4985673;28;20219;-78
2021/04/30 06:53:31;;;;;;;17.83;15.37;;;7.90;99.90;;;;;;4980901;28;20440;-78
2021/04/30 06:55:57;;;;;;;17.90;15.90;;;8.00;99.90;;;;;;4985704;28;20355;-79
2021/04/30 06:58:23;;;;;;;16.00;14.40;;;8.10;99.90;;;;;;4990233;28;20498;-75
2021/04/30 07:00:48;;;;;;;15.30;13.70;;;8.20;99.90;;;;;;4987654;28;20197;-78
2021/04/30 07:03:14;;;;;;;16.20;14.53;;;8.20;99.90;;;;;;4995745;28;20655;-78
2021/04/30 07:05:40;;;;;;;19.40;16.17;;;8.10;99.90;;;;;;4988928;28;20199;-79
2021/04/30 07:08:05;;;;;;;18.33;16.43;;;8.10;99.90;;;;;;4989679;28;20288;-79
2021/04/30 07:10:32;;;;;;;17.63;15.80;;;8.20;99.90;;;;;;4998096;28;20599;-78
2021/04/30 07:12:58;;;;;;;17.47;15.77;;;8.20;99.90;;;;;;4990123;28;20571;-78
2021/04/30 07:15:24;;;;;;;18.53;15.50;;;8.30;99.90;;;;;;4993746;28;20522;-77
2021/04/30 07:17:50;;;;;;;18.70;16.50;;;8.40;99.90;;;;;;4987603;28;20207;-77
2021/04/30 07:20:16;;;;;;;17.77;15.93;;;8.40;99.90;;;;;;4982392;28;20800;-77
2021/04/30 07:22:41;;;;;;;18.13;16.33;;;8.40;99.90;;;;;;4987414;28;20446;-77
2021/04/30 07:25:08;;;;;;;19.60;15.77;;;8.60;99.90;;;;;;4987768;28;20259;-77
2021/04/30 07:27:33;;;;;;;17.30;15.07;;;8.80;99.90;;;;;;4987191;28;20212;-75
2021/04/30 07:29:59;;;;;;;19.97;16.47;;;8.80;99.90;;;;;;4986710;28;20475;-77
2021/04/30 07:32:25;;;;;;;17.63;15.90;;;8.80;99.90;;;;;;4987290;28;20238;-77
2021/04/30 07:34:51;;;;;;;15.53;13.83;;;8.80;99.90;;;;;;4987204;28;20269;-77
2021/04/30 07:37:16;;;;;;;19.50;17.60;;;9.00;99.90;;;;;;4987249;28;20991;-77
2021/04/30 07:39:43;;;;;;;17.53;15.80;;;9.10;99.90;;;;;;4984140;28;20689;-75
2021/04/30 07:42:09;;;;;;;17.60;15.90;;;9.20;99.90;;;;;;4989434;28;20466;-75
2021/04/30 07:44:35;;;;;;;18.23;16.20;;;9.40;99.90;;;;;;4987993;28;20459;-75
2021/04/30 07:47:02;;;;;;;17.83;15.60;;;9.50;99.90;;;;;;4988097;28;20834;-79
2021/04/30 07:49:27;;;;;;;17.27;15.50;;;9.30;99.90;;;;;;4989720;28;20697;-77
2021/04/30 07:51:53;;;;;;;17.23;15.10;;;9.20;99.90;;;;;;4990447;28;20515;-76
2021/04/30 07:54:19;;;;;;;18.33;15.13;;;9.10;99.90;;;;;;4987419;28;20192;-78
2021/04/30 07:56:45;;;;;;;16.77;14.97;;;9.20;99.90;;;;;;4988234;28;20455;-77
2021/04/30 07:59:11;;;;;;;18.10;16.27;;;9.40;99.90;;;;;;4987278;28;20236;-76
2021/04/30 08:01:36;;;;;;;17.23;15.60;;;9.40;99.90;;;;;;4988109;28;20805;-78
2021/04/30 08:04:02;;;;;;;18.70;15.70;;;9.50;99.90;;;;;;4991399;28;20219;-76
2021/04/30 08:06:28;;;;;;;18.77;16.07;;;9.40;99.90;;;;;;4989156;28;20594;-77
2021/04/30 08:08:54;;;;;;;17.67;15.83;;;9.60;99.90;;;;;;5000271;28;20441;-76
2021/04/30 08:11:20;;;;;;;17.17;15.37;;;9.80;99.90;;;;;;4979346;28;20569;-77
2021/04/30 08:13:46;;;;;;;15.70;14.17;;;9.80;99.90;;;;;;4991034;28;20188;-75
2021/04/30 08:16:11;;;;;;;19.30;17.40;;;9.70;99.90;;;;;;4991866;28;20435;-79
2021/04/30 08:18:38;;;;;;;17.23;15.23;;;9.70;99.90;;;;;;4990404;28;20267;-78
2021/04/30 08:21:04;;;;;;;21.00;16.53;;;9.60;99.90;;;;;;4987639;28;20208;-76
2021/04/30 08:23:30;;;;;;;18.27;16.33;;;9.70;99.90;;;;;;4989783;28;20947;-76
2021/04/30 08:25:57;;;;;;;20.47;17.80;;;9.60;99.90;;;;;;4990995;28;20490;-76
2021/04/30 08:28:23;;;;;;;17.70;15.60;;;9.70;99.90;;;;;;4993399;28;20265;-78
2021/04/30 08:30:49;;;;;;;20.80;18.60;;;9.60;99.90;;;;;;4989144;28;20466;-78
2021/04/30 08:33:15;;;;;;;18.40;16.60;;;9.70;99.90;;;;;;4996144;28;20435;-78
2021/04/30 08:35:40;;;;;;;18.17;16.17;;;9.80;99.90;;;;;;4990876;28;20180;-78
2021/04/30 08:38:07;;;;;;;19.03;17.13;;;9.70;99.90;;;;;;4994399;28;20477;-79
2021/04/30 08:40:32;;;;;;;18.13;16.23;;;9.70;99.90;;;;;;4988767;28;20448;-78
2021/04/30 08:42:58;;;;;;;18.20;15.43;;;9.90;99.90;;;;;;4987714;28;20411;-78
2021/04/30 08:45:25;;;;;;;20.30;16.53;;;10.10;99.90;;;;;;4992628;28;20200;-77
2021/04/30 08:47:51;;;;;;;17.27;15.47;;;10.10;99.90;;;;;;4992436;28;20454;-77
2021/04/30 08:50:17;;;;;;;19.33;16.90;;;10.00;99.90;;;;;;4993628;28;20473;-77
2021/04/30 08:52:43;;;;;;;18.20;16.30;;;9.90;99.90;;;;;;4995481;28;20207;-78
2021/04/30 08:55:14;;;;;;;21.10;18.73;;;9.90;99.90;;;;;;4990911;28;20547;-78
2021/04/30 08:57:46;;;;;;;19.60;16.93;;;9.70;99.90;;;;;;4984468;28;20443;-78
2021/04/30 09:00:14;;;;;;;17.13;15.33;;;9.60;99.90;;;;;;4986540;28;20435;-78
2021/04/30 09:02:40;;;;;;;17.73;15.93;;;9.60;99.90;;;;;;4987025;28;20432;-76
2021/04/30 09:05:11;;;;;;;20.73;18.50;;;9.70;99.90;;;;;;4992606;28;21256;-78
2021/04/30 09:07:42;;;;;;;17.70;15.80;;;9.70;99.90;;;;;;5003423;28;20212;-81
2021/04/30 09:10:13;;;;;;;19.83;17.00;;;9.80;99.90;;;;;;4993266;28;20470;-78
2021/04/30 09:12:40;;;;;;;17.83;16.10;;;10.00;99.90;;;;;;4991530;28;20835;-79
2021/04/30 09:15:16;;;;;;;19.57;17.60;;;10.10;99.90;;;;;;4994358;28;20994;-78
2021/04/30 09:17:42;;;;;;;20.63;18.30;;;10.30;99.90;;;;;;4991014;28;20963;-79
2021/04/30 09:20:08;;;;;;;19.37;17.47;;;10.30;99.90;;;;;;4987048;28;20490;-79
2021/04/30 09:22:36;;;;;;;20.07;17.37;;;10.30;99.90;;;;;;4990973;28;20656;-78
2021/04/30 09:25:08;;;;;;;19.73;17.70;;;10.30;99.90;;;;;;4988112;28;20432;-78
2021/04/30 09:27:36;;;;;;;20.13;17.87;;;10.10;99.90;;;;;;4987732;28;20449;-79
2021/04/30 09:30:13;;;;;;;19.50;17.33;;;9.80;99.90;;;;;;4986695;28;20522;-79
2021/04/30 09:32:59;;;;;;;19.60;17.50;;;9.80;99.90;;;;;;4988221;28;20527;-78
2021/04/30 09:35:24;;;;;;;17.73;16.00;;;9.70;99.90;;;;;;4985129;28;20447;-78
2021/04/30 09:37:50;;;;;;;22.10;17.70;;;9.70;99.90;;;;;;4990120;28;20451;-78
2021/04/30 09:40:19;;;;;;;20.53;18.33;;;9.70;99.90;;;;;;4991950;28;20257;-78
2021/04/30 09:42:46;;;;;;;20.27;17.90;;;9.80;99.90;;;;;;4990622;28;20740;-78
2021/04/30 09:45:12;;;;;;;21.50;18.10;;;9.80;99.90;;;;;;4988761;28;20502;-78
2021/04/30 09:47:38;;;;;;;23.33;19.10;;;9.70;99.90;;;;;;4993234;28;20211;-78
2021/04/30 09:50:09;;;;;;;21.47;18.97;;;9.80;99.90;;;;;;4989220;28;20240;-77
2021/04/30 09:52:35;;;;;;;22.27;19.20;;;9.70;99.90;;;;;;4992992;28;20431;-76
2021/04/30 09:55:03;;;;;;;20.13;17.93;;;9.60;99.90;;;;;;4989316;28;20438;-75
2021/04/30 09:57:31;;;;;;;20.63;17.87;;;9.70;99.90;;;;;;4989196;28;20208;-77
2021/04/30 10:00:00;;;;;;;20.30;17.40;;;9.60;99.90;;;;;;4992851;28;20850;-77
2021/04/30 10:02:31;;;;;;;19.63;17.63;;;9.50;99.90;;;;;;4990647;28;20424;-78
2021/04/30 10:04:59;;;;;;;20.37;18.03;;;9.60;99.90;;;;;;4987254;28;20805;-76
2021/04/30 10:07:34;;;;;;;21.40;18.43;;;9.90;99.90;;;;;;4991937;28;20455;-82
2021/04/30 10:10:25;;;;;;;19.77;17.70;;;10.10;99.90;;;;;;5002896;28;20501;-79
2021/04/30 10:12:58;;;;;;;19.13;17.13;;;10.30;99.90;;;;;;4991505;28;20871;-78
2021/04/30 10:15:24;;;;;;;19.00;17.10;;;10.60;99.90;;;;;;4986680;28;20888;-78
2021/04/30 10:17:55;;;;;;;23.40;17.97;;;10.70;99.90;;;;;;4988262;28;20471;-78
2021/04/30 10:20:21;;;;;;;25.30;18.03;;;11.00;99.90;;;;;;4988099;28;20430;-77
2021/04/30 10:22:47;;;;;;;17.70;15.93;;;11.20;99.90;;;;;;4989749;28;20439;-79
2021/04/30 10:25:15;;;;;;;19.43;16.67;;;11.40;99.90;;;;;;4984385;28;20208;-78
2021/04/30 10:27:45;;;;;;;19.83;16.40;;;11.60;99.90;;;;;;4993241;28;20274;-78
2021/04/30 10:30:32;;;;;;;17.50;15.80;;;12.10;99.90;;;;;;4992496;28;20468;-78
2021/04/30 10:33:16;;;;;;;16.60;15.10;;;12.20;99.90;;;;;;4991828;28;20471;-77
2021/04/30 10:35:49;;;;;;;18.77;16.87;;;12.50;99.90;;;;;;4989050;28;20424;-79
2021/04/30 10:38:18;;;;;;;18.27;16.20;;;12.60;99.90;;;;;;4988375;28;20455;-80
2021/04/30 10:41:07;;;;;;;18.00;16.23;;;12.40;99.90;;;;;;4989000;28;20454;-78
2021/04/30 10:43:33;;;;;;;18.00;16.10;;;12.50;99.90;;;;;;4986559;28;20427;-75
2021/04/30 10:46:14;;;;;;;17.50;15.80;;;12.70;99.90;;;;;;4994714;28;21066;-78
2021/04/30 10:49:05;;;;;;;18.27;16.43;;;12.50;99.90;;;;;;4987283;28;20429;-78
2021/04/30 10:51:35;;;;;;;20.90;17.60;;;12.40;99.90;;;;;;4988372;28;20554;-77
2021/04/30 10:54:40;;;;;;;20.77;17.70;;;12.10;99.90;;;;;;4990643;28;20463;-77
2021/04/30 10:57:09;;;;;;;17.10;15.40;;;11.80;99.90;;;;;;4988335;28;20891;-77
2021/04/30 10:59:40;;;;;;;19.20;14.70;;;11.60;99.90;;;;;;5009252;28;20485;-75
2021/04/30 11:02:09;;;;;;;18.67;16.77;;;11.40;99.90;;;;;;5004149;28;20441;-77
2021/04/30 11:04:34;;;;;;;16.80;14.87;;;11.60;99.90;;;;;;5008740;28;20435;-78
2021/04/30 11:07:00;;;;;;;22.13;16.20;;;11.80;99.90;;;;;;4987575;28;20458;-77
2021/04/30 11:09:37;;;;;;;18.27;16.30;;;12.00;99.90;;;;;;4987174;28;20207;-76
2021/04/30 11:12:18;;;;;;;18.60;15.77;;;12.10;99.90;;;;;;4993171;28;20223;-78
2021/04/30 11:15:08;;;;;;;16.97;15.20;;;12.10;99.90;;;;;;5005794;28;20789;-77
2021/04/30 11:17:53;;;;;;;18.47;16.57;;;11.90;99.90;;;;;;5000835;28;20984;-77
2021/04/30 11:20:20;;;;;;;18.17;15.10;;;12.10;99.90;;;;;;5005578;28;20452;-77
2021/04/30 11:23:17;;;;;;;16.37;14.90;;;12.20;99.90;;;;;;5008163;28;20560;-76
2021/04/30 11:25:58;;;;;;;17.20;15.30;;;12.50;99.90;;;;;;4985009;28;21046;-78
2021/04/30 11:28:30;;;;;;;17.43;15.87;;;12.60;99.90;;;;;;5003890;28;20470;-78
2021/04/30 11:31:02;;;;;;;17.13;15.33;;;12.60;99.90;;;;;;4995983;28;20540;-77
2021/04/30 11:33:29;;;;;;;17.27;15.40;;;12.30;99.90;;;;;;4986006;28;20842;-78
2021/04/30 11:35:56;;;;;;;16.53;15.00;;;12.40;99.90;;;;;;4995366;28;20565;-78
2021/04/30 11:38:35;;;;;;;16.23;14.57;;;12.40;99.90;;;;;;4991636;28;20457;-77
2021/04/30 11:41:01;;;;;;;17.67;15.83;;;12.30;99.90;;;;;;4986071;28;21319;-78
2021/04/30 11:43:27;;;;;;;16.10;14.60;;;12.20;99.90;;;;;;4990692;28;20470;-77
2021/04/30 11:45:54;;;;;;;15.53;13.93;;;11.80;99.90;;;;;;4987331;28;20439;-76
2021/04/30 11:48:24;;;;;;;17.23;15.63;;;12.00;99.90;;;;;;4989399;28;20211;-77
2021/04/30 11:51:11;;;;;;;14.77;13.50;;;12.00;99.90;;;;;;4987081;28;20455;-78
2021/04/30 11:53:39;;;;;;;18.03;16.20;;;12.10;99.90;;;;;;4990009;28;20439;-77
2021/04/30 11:56:06;;;;;;;16.53;14.70;;;12.20;99.90;;;;;;4979374;28;20427;-75
2021/04/30 11:58:38;;;;;;;15.77;13.50;;;12.10;99.90;;;;;;4987348;28;20455;-77
2021/04/30 12:01:05;;;;;;;13.97;12.50;;;12.00;99.90;;;;;;4985985;28;20431;-76
2021/04/30 12:03:49;;;;;;;12.10;11.03;;;12.00;99.90;;;;;;4986906;28;20526;-77
2021/04/30 12:06:17;;;;;;;13.63;12.13;;;12.10;99.90;;;;;;4980441;28;20621;-74
2021/04/30 12:08:44;;;;;;;17.83;15.27;;;12.30;99.90;;;;;;4987010;28;20498;-77
2021/04/30 12:11:20;;;;;;;16.40;14.80;;;12.10;99.90;;;;;;4990667;28;20832;-76
2021/04/30 12:13:46;;;;;;;14.70;13.30;;;11.80;99.90;;;;;;4981380;28;20496;-76
2021/04/30 12:16:13;;;;;;;17.00;15.20;;;11.60;99.90;;;;;;4987709;28;20843;-77
2021/04/30 12:18:39;;;;;;;16.10;14.43;;;11.70;99.90;;;;;;4991324;28;20200;-77
2021/04/30 12:21:05;;;;;;;17.53;15.73;;;11.60;99.90;;;;;;4987115;28;20510;-77
2021/04/30 12:23:31;;;;;;;15.67;13.47;;;11.50;99.90;;;;;;4986842;28;20196;-77
2021/04/30 12:25:56;;;;;;;16.30;14.60;;;11.50;99.90;;;;;;4986221;28;20434;-77
2021/04/30 12:28:28;;;;;;;14.83;13.13;;;11.50;99.90;;;;;;4986752;28;20223;-78
2021/04/30 12:31:08;;;;;;;15.67;13.77;;;11.50;99.90;;;;;;4987010;28;20200;-76
2021/04/30 12:33:39;;;;;;;15.93;14.30;;;11.60;99.90;;;;;;4982047;28;20431;-78
2021/04/30 12:36:08;;;;;;;15.60;14.20;;;11.70;99.90;;;;;;4980848;28;20446;-81
2021/04/30 12:38:35;;;;;;;14.63;13.20;;;11.70;99.90;;;;;;4987172;28;20946;-77